createdAt,value
2019-03-31T00:01:58.881Z,15.77
2019-03-31T00:04:31.053Z,15.70
2019-03-31T00:07:00.923Z,17.37
2019-03-31T00:09:33.556Z,12.80
2019-03-31T00:12:05.290Z,15.97
2019-03-31T00:14:34.817Z,17.40
2019-03-31T00:17:06.246Z,14.87
2019-03-31T00:19:35.893Z,21.70
2019-03-31T00:22:06.030Z,20.60
2019-03-31T00:24:37.607Z,15.10
2019-03-31T00:27:07.496Z,13.27
2019-03-31T00:29:37.183Z,15.83
2019-03-31T00:32:09.412Z,14.43
2019-03-31T00:34:42.069Z,16.50
2019-03-31T00:37:11.686Z,18.87
2019-03-31T00:39:44.147Z,14.43
2019-03-31T00:42:21.993Z,16.53
2019-03-31T00:44:58.931Z,11.07
2019-03-31T00:47:28.647Z,13.97
2019-03-31T00:50:03.539Z,13.37
2019-03-31T00:52:33.259Z,17.47
2019-03-31T00:55:05.716Z,12.47
2019-03-31T00:57:35.332Z,13.80
2019-03-31T01:00:12.608Z,12.47
2019-03-31T01:02:43.683Z,12.53
2019-03-31T01:05:24.037Z,13.90
2019-03-31T01:07:56.835Z,14.97
2019-03-31T01:10:26.573Z,11.07
2019-03-31T01:13:01.778Z,10.17
2019-03-31T01:15:34.680Z,12.37
2019-03-31T01:18:04.306Z,15.00
2019-03-31T01:20:33.921Z,14.10
2019-03-31T01:23:06.769Z,12.10
2019-03-31T01:25:36.497Z,13.93
2019-03-31T01:28:09.634Z,15.00
2019-03-31T01:30:45.081Z,12.30
2019-03-31T01:33:15.817Z,13.60
2019-03-31T01:35:46.596Z,13.33
2019-03-31T01:38:16.242Z,12.60
2019-03-31T01:40:46.225Z,18.57
2019-03-31T01:43:15.984Z,17.10
2019-03-31T01:45:48.776Z,14.17
2019-03-31T01:48:21.514Z,13.67
2019-03-31T01:50:51.157Z,15.47
2019-03-31T01:53:23.417Z,14.30
2019-03-31T01:55:57.654Z,12.77
2019-03-31T01:58:36.230Z,18.17
2019-03-31T02:01:06.390Z,16.80
2019-03-31T02:03:36.041Z,12.30
2019-03-31T02:06:05.654Z,13.13
2019-03-31T02:08:37.642Z,12.57
2019-03-31T02:11:12.404Z,12.07
2019-03-31T02:13:45.112Z,14.17
2019-03-31T02:16:14.738Z,12.43
2019-03-31T02:18:44.373Z,15.10
2019-03-31T02:21:14.127Z,12.40
2019-03-31T02:23:48.235Z,12.03
2019-03-31T02:26:21.029Z,13.23
2019-03-31T02:28:52.549Z,14.80
2019-03-31T02:31:22.200Z,15.20
2019-03-31T02:33:52.956Z,10.60
2019-03-31T02:36:23.555Z,12.23
2019-03-31T02:38:53.219Z,13.90
2019-03-31T02:41:23.111Z,13.90
2019-03-31T02:43:52.700Z,13.70
2019-03-31T02:46:22.455Z,15.73
2019-03-31T02:48:52.063Z,14.77
2019-03-31T02:51:27.637Z,12.70
2019-03-31T02:54:03.493Z,20.83
2019-03-31T02:56:40.953Z,16.70
2019-03-31T02:59:12.212Z,13.73
2019-03-31T03:01:44.637Z,14.87
2019-03-31T03:04:18.835Z,14.03
2019-03-31T03:06:52.119Z,16.37
2019-03-31T03:09:22.927Z,15.93
2019-03-31T03:11:57.096Z,16.83
2019-03-31T03:14:28.246Z,17.40
2019-03-31T03:16:59.643Z,15.00
2019-03-31T03:19:29.355Z,15.20
2019-03-31T03:22:00.386Z,15.77
2019-03-31T03:24:32.477Z,16.20
2019-03-31T03:27:05.514Z,15.20
2019-03-31T03:29:37.912Z,17.53
2019-03-31T03:32:07.529Z,17.33
2019-03-31T03:34:37.169Z,16.73
2019-03-31T03:37:07.946Z,17.90
2019-03-31T03:39:37.783Z,18.23
2019-03-31T03:42:13.405Z,16.70
2019-03-31T03:44:44.440Z,21.30
2019-03-31T03:47:23.189Z,16.47
2019-03-31T03:49:54.387Z,15.37
2019-03-31T03:52:24.158Z,17.17
2019-03-31T03:54:57.243Z,15.80
2019-03-31T03:57:31.238Z,17.50
2019-03-31T04:00:03.588Z,18.57
2019-03-31T04:02:33.527Z,15.80
2019-03-31T04:05:04.665Z,15.27
2019-03-31T04:07:34.800Z,15.30
2019-03-31T04:10:04.431Z,18.33
2019-03-31T04:12:35.118Z,16.10
2019-03-31T04:15:16.892Z,17.70
2019-03-31T04:17:48.630Z,15.87
2019-03-31T04:20:18.266Z,12.80
2019-03-31T04:22:47.969Z,18.40
2019-03-31T04:25:18.857Z,18.93
2019-03-31T04:27:48.467Z,18.47
2019-03-31T04:30:19.597Z,15.30
2019-03-31T04:32:53.964Z,16.70
2019-03-31T04:35:27.101Z,14.50
2019-03-31T04:37:56.718Z,15.47
2019-03-31T04:40:26.508Z,14.63
2019-03-31T04:42:57.912Z,13.30
2019-03-31T04:45:28.962Z,19.23
2019-03-31T04:47:58.571Z,15.17
2019-03-31T04:50:32.286Z,14.10
2019-03-31T04:53:08.585Z,20.00
2019-03-31T04:55:39.965Z,16.23
2019-03-31T04:58:09.643Z,18.63
2019-03-31T05:00:39.262Z,22.97
2019-03-31T05:03:08.881Z,15.80
2019-03-31T05:05:42.648Z,18.70
2019-03-31T05:08:12.301Z,16.93
2019-03-31T05:10:44.267Z,17.77
2019-03-31T05:13:14.346Z,16.53
2019-03-31T05:15:44.468Z,17.37
2019-03-31T05:18:16.674Z,18.03
2019-03-31T05:20:46.312Z,18.23
2019-03-31T05:23:19.895Z,18.30
2019-03-31T05:25:50.585Z,14.43
2019-03-31T05:28:21.688Z,11.83
2019-03-31T05:30:55.489Z,16.27
2019-03-31T05:33:25.114Z,17.47
2019-03-31T05:35:57.654Z,18.17
2019-03-31T05:38:33.985Z,17.80
2019-03-31T05:41:01.219Z,16.23
2019-03-31T05:43:30.817Z,18.57
2019-03-31T05:46:00.441Z,18.53
2019-03-31T05:48:37.404Z,13.40
2019-03-31T05:51:07.025Z,18.10
2019-03-31T05:53:39.187Z,16.07
2019-03-31T05:56:09.913Z,15.83
2019-03-31T05:58:43.954Z,15.60
2019-03-31T06:01:15.317Z,14.40
2019-03-31T06:03:46.093Z,17.00
2019-03-31T06:06:18.490Z,21.40
2019-03-31T06:08:53.923Z,22.17
2019-03-31T06:11:23.541Z,14.47
2019-03-31T06:13:56.412Z,18.20
2019-03-31T06:16:26.123Z,12.47
2019-03-31T06:18:59.589Z,17.57
2019-03-31T06:21:29.414Z,21.83
2019-03-31T06:23:59.018Z,17.53
2019-03-31T06:26:33.972Z,16.10
2019-03-31T06:29:05.059Z,23.67
2019-03-31T06:31:35.897Z,14.47
2019-03-31T06:34:05.515Z,15.93
2019-03-31T06:36:35.122Z,17.80
2019-03-31T06:39:06.503Z,20.77
2019-03-31T06:41:36.481Z,15.50
2019-03-31T06:44:06.079Z,18.40
2019-03-31T06:46:36.006Z,20.50
2019-03-31T06:49:06.704Z,15.17
2019-03-31T06:51:38.592Z,17.53
2019-03-31T06:54:11.841Z,15.87
2019-03-31T06:56:47.112Z,17.07
2019-03-31T06:59:26.113Z,19.63
2019-03-31T07:01:55.850Z,16.33
2019-03-31T07:04:31.457Z,18.30
2019-03-31T07:07:01.121Z,11.60
2019-03-31T07:09:32.740Z,18.53
2019-03-31T07:12:06.489Z,16.43
2019-03-31T07:14:43.151Z,15.47
2019-03-31T07:17:14.636Z,18.67
2019-03-31T07:19:44.352Z,17.53
2019-03-31T07:22:18.008Z,18.03
2019-03-31T07:24:48.561Z,18.47
2019-03-31T07:27:18.168Z,20.80
2019-03-31T07:29:50.527Z,16.17
2019-03-31T07:32:24.566Z,16.40
2019-03-31T07:34:57.166Z,13.70
2019-03-31T07:37:26.895Z,18.53
2019-03-31T07:39:56.706Z,21.90
2019-03-31T07:42:26.447Z,18.53
2019-03-31T07:45:04.057Z,24.53
2019-03-31T07:47:39.576Z,19.67
2019-03-31T07:50:12.050Z,20.00
2019-03-31T07:52:43.125Z,21.53
2019-03-31T07:55:17.792Z,19.27
2019-03-31T07:57:47.519Z,18.80
2019-03-31T08:00:21.247Z,21.10
2019-03-31T08:02:52.902Z,22.70
2019-03-31T08:05:33.268Z,21.37
2019-03-31T08:08:00.345Z,21.97
2019-03-31T08:10:29.974Z,21.20
2019-03-31T08:13:01.104Z,24.37
2019-03-31T08:15:32.192Z,20.20
2019-03-31T08:18:01.713Z,22.30
2019-03-31T08:20:32.825Z,20.07
2019-03-31T08:23:02.537Z,24.43
2019-03-31T08:25:33.318Z,23.87
2019-03-31T08:28:02.920Z,21.60
2019-03-31T08:30:33.849Z,25.37
2019-03-31T08:33:03.433Z,23.07
2019-03-31T08:35:46.331Z,20.87
2019-03-31T08:38:05.623Z,18.47
2019-03-31T08:40:35.278Z,21.63
2019-03-31T08:43:06.612Z,20.73
2019-03-31T08:45:36.220Z,27.83
2019-03-31T08:48:05.841Z,26.30
2019-03-31T08:50:35.769Z,23.57
2019-03-31T08:53:05.342Z,25.80
2019-03-31T08:55:37.834Z,23.50
2019-03-31T08:58:08.174Z,27.33
2019-03-31T09:00:42.525Z,28.70
2019-03-31T09:03:12.179Z,26.20
2019-03-31T09:05:45.775Z,29.57
2019-03-31T09:08:18.271Z,52.50
2019-03-31T09:10:49.494Z,49.87
2019-03-31T09:13:19.288Z,37.70
2019-03-31T09:15:51.140Z,31.27
2019-03-31T09:18:23.153Z,30.37
2019-03-31T09:20:54.236Z,28.97
2019-03-31T09:23:27.113Z,26.60
2019-03-31T09:26:00.214Z,26.00
2019-03-31T09:28:30.764Z,23.70
2019-03-31T09:31:00.437Z,31.77
2019-03-31T09:33:31.993Z,23.07
2019-03-31T09:36:16.394Z,20.10
2019-03-31T09:38:43.937Z,23.73
2019-03-31T09:41:22.742Z,29.37
2019-03-31T09:43:56.268Z,28.17
2019-03-31T09:46:30.884Z,26.50
2019-03-31T09:49:02.630Z,24.00
2019-03-31T09:51:36.929Z,26.37
2019-03-31T09:54:06.542Z,26.07
2019-03-31T09:56:36.228Z,22.40
2019-03-31T09:59:06.662Z,29.37
2019-03-31T10:01:39.282Z,26.97
2019-03-31T10:04:10.682Z,26.93
2019-03-31T10:06:41.583Z,21.30
2019-03-31T10:09:19.730Z,32.97
2019-03-31T10:11:49.435Z,21.40
2019-03-31T10:14:21.556Z,32.07
2019-03-31T10:16:53.581Z,29.33
2019-03-31T10:19:25.064Z,26.37
2019-03-31T10:21:55.703Z,26.43
2019-03-31T10:24:26.687Z,22.67
2019-03-31T10:26:56.268Z,27.90
2019-03-31T10:29:26.203Z,27.07
2019-03-31T10:32:00.375Z,24.77
2019-03-31T10:34:29.990Z,31.37
2019-03-31T10:36:59.572Z,28.00
2019-03-31T10:39:32.582Z,26.77
2019-03-31T10:42:02.238Z,31.77
2019-03-31T10:44:37.009Z,30.43
2019-03-31T10:47:10.030Z,27.60
2019-03-31T10:49:39.675Z,27.90
2019-03-31T10:52:09.761Z,26.33
2019-03-31T10:54:41.101Z,32.20
2019-03-31T10:57:10.985Z,27.07
2019-03-31T10:59:41.173Z,26.00
2019-03-31T11:02:11.154Z,31.10
2019-03-31T11:04:40.869Z,25.90
2019-03-31T11:07:12.460Z,34.83
2019-03-31T11:09:47.905Z,28.87
2019-03-31T11:12:19.198Z,29.53
2019-03-31T11:14:51.131Z,31.60
2019-03-31T11:17:23.981Z,28.73
2019-03-31T11:19:53.697Z,28.90
2019-03-31T11:22:40.206Z,28.53
2019-03-31T11:25:20.170Z,24.43
2019-03-31T11:27:43.801Z,24.20
2019-03-31T11:30:15.808Z,25.40
2019-03-31T11:32:45.899Z,34.30
2019-03-31T11:35:15.511Z,28.37
2019-03-31T11:37:49.741Z,28.80
2019-03-31T11:40:24.033Z,22.13
2019-03-31T11:42:53.738Z,33.63
2019-03-31T11:45:25.747Z,29.80
2019-03-31T11:47:57.157Z,25.80
2019-03-31T11:50:26.904Z,25.90
2019-03-31T11:52:59.348Z,23.27
2019-03-31T11:55:29.024Z,28.70
2019-03-31T11:58:01.414Z,25.70
2019-03-31T12:00:34.117Z,26.10
2019-03-31T12:03:03.876Z,25.53
2019-03-31T12:05:38.597Z,19.87
2019-03-31T12:08:08.749Z,23.70
2019-03-31T12:10:41.589Z,30.33
2019-03-31T12:13:12.448Z,22.70
2019-03-31T12:15:44.707Z,24.07
2019-03-31T12:18:21.584Z,23.23
2019-03-31T12:20:53.641Z,17.53
2019-03-31T12:23:26.821Z,16.03
2019-03-31T12:25:59.663Z,13.13
2019-03-31T12:28:29.323Z,16.83
2019-03-31T12:31:01.886Z,17.37
2019-03-31T12:33:33.958Z,16.90
2019-03-31T12:36:11.964Z,15.63
2019-03-31T12:38:41.551Z,7.80
2019-03-31T12:41:11.188Z,14.87
2019-03-31T12:43:45.168Z,20.33
2019-03-31T12:46:15.637Z,16.20
2019-03-31T12:48:48.327Z,15.87
2019-03-31T12:51:18.138Z,12.40
2019-03-31T12:53:52.156Z,17.47
2019-03-31T12:56:23.381Z,19.30
2019-03-31T12:58:55.770Z,12.30
2019-03-31T13:01:25.406Z,22.10
2019-03-31T13:03:59.994Z,18.13
2019-03-31T13:06:29.664Z,16.20
2019-03-31T13:09:03.943Z,14.00
2019-03-31T13:11:35.435Z,15.97
2019-03-31T13:14:12.447Z,14.30
2019-03-31T13:16:47.486Z,13.47
2019-03-31T13:19:18.579Z,11.17
2019-03-31T13:21:49.697Z,15.57
2019-03-31T13:24:21.143Z,17.53
2019-03-31T13:26:53.967Z,12.23
2019-03-31T13:29:24.796Z,13.40
2019-03-31T13:32:02.782Z,16.00
2019-03-31T13:34:32.470Z,12.77
2019-03-31T13:37:04.489Z,16.50
2019-03-31T13:39:35.676Z,20.53
2019-03-31T13:42:09.223Z,16.73
2019-03-31T13:44:38.780Z,12.20
2019-03-31T13:47:14.158Z,16.80
2019-03-31T13:49:43.850Z,13.77
2019-03-31T13:52:14.935Z,18.90
2019-03-31T13:54:46.308Z,14.77
2019-03-31T13:57:19.615Z,13.43
2019-03-31T13:59:51.468Z,11.77
2019-03-31T14:02:21.155Z,10.63
2019-03-31T14:04:52.216Z,12.13
2019-03-31T14:07:22.993Z,9.07
2019-03-31T14:09:56.069Z,12.47
2019-03-31T14:12:28.848Z,10.80
2019-03-31T14:14:58.421Z,10.30
2019-03-31T14:17:31.380Z,12.33
2019-03-31T14:20:00.992Z,8.17
2019-03-31T14:22:30.703Z,9.60
2019-03-31T14:25:01.597Z,12.40
2019-03-31T14:27:32.253Z,11.13
2019-03-31T14:30:05.264Z,10.00
2019-03-31T14:32:34.932Z,7.90
2019-03-31T14:35:13.948Z,8.93
2019-03-31T14:37:44.122Z,9.93
2019-03-31T14:40:16.318Z,10.20
2019-03-31T14:42:48.709Z,8.83
2019-03-31T14:45:31.259Z,5.70
2019-03-31T14:48:04.298Z,10.57
2019-03-31T14:50:35.624Z,8.00
2019-03-31T14:53:05.658Z,10.10
2019-03-31T14:55:36.720Z,6.40
2019-03-31T14:58:10.672Z,7.33
2019-03-31T15:00:44.349Z,10.90
2019-03-31T15:03:18.116Z,9.43
2019-03-31T15:05:47.150Z,12.13
2019-03-31T15:08:17.081Z,8.23
2019-03-31T15:10:46.753Z,8.20
2019-03-31T15:13:17.404Z,7.43
2019-03-31T15:15:48.461Z,9.40
2019-03-31T15:18:21.024Z,7.80
2019-03-31T15:20:50.618Z,12.23
2019-03-31T15:23:29.116Z,7.70
2019-03-31T15:25:54.222Z,9.37
2019-03-31T15:28:24.459Z,7.27
2019-03-31T15:30:59.859Z,7.23
2019-03-31T15:33:29.475Z,5.73
2019-03-31T15:35:59.312Z,6.47
2019-03-31T15:38:28.930Z,8.60
2019-03-31T15:40:58.573Z,7.97
2019-03-31T15:43:32.655Z,5.30
2019-03-31T15:46:04.158Z,9.17
2019-03-31T15:48:33.741Z,8.30
2019-03-31T15:51:05.796Z,8.93
2019-03-31T15:53:37.420Z,7.33
2019-03-31T15:56:07.948Z,9.30
2019-03-31T15:58:37.765Z,6.47
2019-03-31T16:01:08.324Z,5.70
2019-03-31T16:03:38.606Z,7.40
2019-03-31T16:06:09.211Z,7.40
2019-03-31T16:08:39.249Z,7.23
2019-03-31T16:11:08.342Z,6.77
2019-03-31T16:13:37.786Z,8.00
2019-03-31T16:16:06.855Z,7.27
2019-03-31T16:18:36.359Z,6.63
2019-03-31T16:21:08.484Z,7.87
2019-03-31T16:23:37.843Z,7.73
2019-03-31T16:26:06.925Z,6.27
2019-03-31T16:28:38.057Z,6.90
2019-03-31T16:31:10.839Z,5.47
2019-03-31T16:33:40.081Z,6.83
2019-03-31T16:36:10.317Z,6.27
2019-03-31T16:38:40.296Z,7.43
2019-03-31T16:41:09.499Z,5.20
2019-03-31T16:43:38.625Z,7.03
2019-03-31T16:46:09.397Z,7.80
2019-03-31T16:48:39.193Z,6.67
2019-03-31T16:51:08.589Z,5.80
2019-03-31T16:53:38.763Z,8.07
2019-03-31T16:56:07.791Z,8.40
2019-03-31T16:58:36.959Z,6.77
2019-03-31T17:01:06.223Z,7.10
2019-03-31T17:03:38.534Z,6.90
2019-03-31T17:06:07.883Z,6.60
2019-03-31T17:08:37.018Z,6.63
2019-03-31T17:11:06.281Z,5.53
2019-03-31T17:13:38.152Z,6.37
2019-03-31T17:16:08.130Z,8.27
2019-03-31T17:18:37.196Z,6.70
2019-03-31T17:21:08.082Z,6.13
2019-03-31T17:23:37.185Z,7.27
2019-03-31T17:26:06.336Z,4.77
2019-03-31T17:28:36.208Z,5.47
2019-03-31T17:31:06.537Z,5.77
2019-03-31T17:33:41.983Z,5.60
2019-03-31T17:36:13.285Z,8.03
2019-03-31T17:38:42.413Z,8.17
2019-03-31T17:41:11.484Z,8.30
2019-03-31T17:43:40.851Z,10.47
2019-03-31T17:46:10.011Z,8.93
2019-03-31T17:48:40.141Z,7.40
2019-03-31T17:51:15.131Z,7.63
2019-03-31T17:53:45.555Z,7.30
2019-03-31T17:56:22.580Z,10.13
2019-03-31T17:58:54.710Z,8.50
2019-03-31T18:01:29.946Z,6.70
2019-03-31T18:03:59.137Z,8.60
2019-03-31T18:06:28.185Z,7.60
2019-03-31T18:08:57.288Z,8.40
2019-03-31T18:11:26.362Z,6.50
2019-03-31T18:13:55.447Z,8.10
2019-03-31T18:16:25.840Z,9.23
2019-03-31T18:18:54.888Z,9.57
2019-03-31T18:21:27.066Z,7.47
2019-03-31T18:23:54.758Z,9.23
2019-03-31T18:26:23.839Z,9.90
2019-03-31T18:28:52.952Z,9.17
2019-03-31T18:31:23.493Z,9.00
2019-03-31T18:33:52.788Z,14.90
2019-03-31T18:36:35.605Z,9.87
2019-03-31T18:38:57.873Z,8.23
2019-03-31T18:41:26.929Z,9.40
2019-03-31T18:43:56.037Z,14.90
2019-03-31T18:46:25.138Z,9.80
2019-03-31T18:48:54.197Z,9.50
2019-03-31T18:51:23.246Z,13.60
2019-03-31T18:54:05.699Z,14.40
2019-03-31T18:56:51.117Z,13.00
2019-03-31T18:59:40.739Z,10.27
2019-03-31T19:02:29.023Z,14.53
2019-03-31T19:05:20.581Z,12.20
2019-03-31T19:08:11.713Z,12.73
2019-03-31T19:10:58.624Z,9.60
2019-03-31T19:13:56.265Z,12.10
2019-03-31T19:16:44.497Z,14.93
2019-03-31T19:19:29.285Z,10.50
2019-03-31T19:22:12.453Z,14.03
2019-03-31T19:25:09.089Z,14.77
2019-03-31T19:28:09.055Z,12.70
2019-03-31T19:30:54.138Z,14.20
2019-03-31T19:33:42.339Z,15.13
2019-03-31T19:36:36.634Z,15.07
2019-03-31T19:39:26.833Z,16.10
2019-03-31T19:42:24.692Z,20.30
2019-03-31T19:45:19.275Z,13.73
2019-03-31T19:47:58.331Z,13.90
2019-03-31T19:50:55.685Z,17.50
2019-03-31T19:54:03.286Z,14.77
2019-03-31T19:56:41.886Z,16.23
2019-03-31T19:59:28.985Z,16.60
2019-03-31T20:02:17.094Z,15.30
2019-03-31T20:05:05.019Z,15.17
2019-03-31T20:08:09.515Z,19.80
2019-03-31T20:11:06.785Z,12.47
2019-03-31T20:13:57.020Z,17.73
2019-03-31T20:16:51.262Z,18.90
2019-03-31T20:19:51.392Z,21.00
2019-03-31T20:22:48.278Z,17.90
2019-03-31T20:25:28.032Z,19.03
2019-03-31T20:28:14.961Z,15.63
2019-03-31T20:31:05.647Z,20.43
2019-03-31T20:33:41.818Z,17.13
2019-03-31T20:36:32.591Z,14.73
2019-03-31T20:39:25.142Z,19.13
2019-03-31T20:41:59.578Z,14.43
2019-03-31T20:44:29.777Z,17.87
2019-03-31T20:47:01.600Z,18.47
2019-03-31T20:49:35.173Z,18.00
2019-03-31T20:52:04.250Z,20.03
2019-03-31T20:54:33.342Z,16.77
2019-03-31T20:57:02.371Z,17.93
2019-03-31T20:59:31.726Z,24.13
2019-03-31T21:02:01.953Z,21.77
2019-03-31T21:04:32.754Z,22.07
2019-03-31T21:07:04.345Z,19.37
2019-03-31T21:09:44.819Z,21.53
2019-03-31T21:12:07.974Z,18.80
2019-03-31T21:14:37.015Z,22.30
2019-03-31T21:17:07.761Z,23.67
2019-03-31T21:19:37.390Z,20.23
2019-03-31T21:22:08.223Z,24.30
2019-03-31T21:24:37.622Z,23.47
2019-03-31T21:27:09.296Z,19.23
2019-03-31T21:29:39.760Z,24.47
2019-03-31T21:32:09.056Z,23.90
2019-03-31T21:34:38.180Z,22.90
2019-03-31T21:37:07.293Z,25.10
2019-03-31T21:39:36.437Z,26.60
2019-03-31T21:42:05.912Z,25.03
2019-03-31T21:44:38.436Z,28.07
2019-03-31T21:47:07.481Z,23.87
2019-03-31T21:49:36.569Z,30.10
2019-03-31T21:52:05.706Z,23.90
2019-03-31T21:54:34.767Z,27.30
2019-03-31T21:57:03.910Z,35.17
2019-03-31T21:59:33.948Z,26.40
2019-03-31T22:02:02.996Z,28.47
2019-03-31T22:04:32.059Z,32.50
2019-03-31T22:07:01.126Z,33.67
2019-03-31T22:09:30.189Z,33.67
2019-03-31T22:11:59.245Z,30.80
2019-03-31T22:14:31.849Z,32.33
2019-03-31T22:17:03.053Z,38.70
2019-03-31T22:19:36.601Z,41.00
2019-03-31T22:22:05.712Z,39.67
2019-03-31T22:24:38.963Z,34.97
2019-03-31T22:27:09.779Z,37.50
2019-03-31T22:29:39.896Z,37.90
2019-03-31T22:32:19.684Z,38.73
2019-03-31T22:34:48.757Z,38.73
2019-03-31T22:37:17.811Z,36.50
2019-03-31T22:39:46.864Z,41.37
2019-03-31T22:42:15.925Z,37.50
2019-03-31T22:44:45.040Z,39.80
2019-03-31T22:47:14.076Z,40.60
2019-03-31T22:49:43.128Z,46.40
2019-03-31T22:52:12.469Z,42.23
2019-03-31T22:54:41.588Z,45.80
2019-03-31T22:57:11.824Z,41.50
2019-03-31T22:59:43.313Z,47.97
2019-03-31T23:02:12.386Z,43.00
2019-03-31T23:04:41.534Z,41.30
2019-03-31T23:07:10.583Z,48.40
2019-03-31T23:09:39.637Z,43.73
2019-03-31T23:12:08.675Z,45.70
2019-03-31T23:14:37.935Z,41.40
2019-03-31T23:17:08.162Z,51.30
2019-03-31T23:19:41.804Z,49.13
2019-03-31T23:22:10.875Z,48.97
2019-03-31T23:24:39.936Z,46.90
2019-03-31T23:27:09.341Z,54.67
2019-03-31T23:29:38.757Z,44.50
2019-03-31T23:32:10.978Z,55.97
2019-03-31T23:34:43.056Z,54.60
2019-03-31T23:37:18.144Z,50.07
2019-03-31T23:39:52.808Z,51.70
2019-03-31T23:42:24.363Z,53.07
2019-03-31T23:44:54.275Z,42.47
2019-03-31T23:47:23.373Z,46.97
2019-03-31T23:49:52.428Z,48.13
2019-03-31T23:52:22.504Z,47.87
2019-03-31T23:54:51.552Z,41.63
2019-03-31T23:57:39.084Z,52.60
